sensor_id;sensor_type;location;lat;lon;timestamp;pressure;altitude;pressure_sealevel;temperature;humidity
68871;BME280;55906;52.278;6.808;2022-08-14T00:00:07;101131.16;;;23.88;46.77
68871;BME280;55906;52.278;6.808;2022-08-14T00:02:34;101123.22;;;23.84;46.97
68871;BME280;55906;52.278;6.808;2022-08-14T00:05:01;101120.63;;;23.79;46.74
68871;BME280;55906;52.278;6.808;2022-08-14T00:07:29;101115.34;;;23.76;47.01
68871;BME280;55906;52.278;6.808;2022-08-14T00:09:56;101108.31;;;23.71;47.33
68871;BME280;55906;52.278;6.808;2022-08-14T00:12:23;101110.22;;;23.66;47.51
68871;BME280;55906;52.278;6.808;2022-08-14T00:14:50;101101.34;;;23.62;47.82
68871;BME280;55906;52.278;6.808;2022-08-14T00:17:17;101112.22;;;23.57;47.78
68871;BME280;55906;52.278;6.808;2022-08-14T00:19:44;101106.03;;;23.52;47.94
68871;BME280;55906;52.278;6.808;2022-08-14T00:22:10;101110.56;;;23.50;48.11
68871;BME280;55906;52.278;6.808;2022-08-14T00:24:44;101105.25;;;23.47;48.20
68871;BME280;55906;52.278;6.808;2022-08-14T00:27:11;101098.19;;;23.43;48.05
68871;BME280;55906;52.278;6.808;2022-08-14T00:29:37;101099.13;;;23.42;48.16
68871;BME280;55906;52.278;6.808;2022-08-14T00:32:05;101099.16;;;23.41;48.06
68871;BME280;55906;52.278;6.808;2022-08-14T00:34:32;101096.50;;;23.38;48.21
68871;BME280;55906;52.278;6.808;2022-08-14T00:36:58;101093.84;;;23.36;48.44
68871;BME280;55906;52.278;6.808;2022-08-14T00:39:25;101087.63;;;23.34;48.38
68871;BME280;55906;52.278;6.808;2022-08-14T00:41:53;101094.91;;;23.29;48.67
68871;BME280;55906;52.278;6.808;2022-08-14T00:44:19;101091.41;;;23.25;48.73
68871;BME280;55906;52.278;6.808;2022-08-14T00:46:46;101088.75;;;23.24;48.77
68871;BME280;55906;52.278;6.808;2022-08-14T00:49:14;101087.91;;;23.22;48.69
68871;BME280;55906;52.278;6.808;2022-08-14T00:51:41;101083.63;;;23.13;49.14
68871;BME280;55906;52.278;6.808;2022-08-14T00:54:08;101079.25;;;23.09;49.13
68871;BME280;55906;52.278;6.808;2022-08-14T00:56:35;101074.91;;;23.04;49.33
68871;BME280;55906;52.278;6.808;2022-08-14T00:59:04;101075.03;;;22.97;49.86
68871;BME280;55906;52.278;6.808;2022-08-14T01:01:31;101078.72;;;22.93;49.91
68871;BME280;55906;52.278;6.808;2022-08-14T01:04:00;101073.41;;;22.90;49.57
68871;BME280;55906;52.278;6.808;2022-08-14T01:06:28;101076.19;;;22.86;50.12
68871;BME280;55906;52.278;6.808;2022-08-14T01:08:57;101068.19;;;22.84;50.32
68871;BME280;55906;52.278;6.808;2022-08-14T01:11:26;101062.88;;;22.81;50.19
68871;BME280;55906;52.278;6.808;2022-08-14T01:13:53;101074.56;;;22.77;50.22
68871;BME280;55906;52.278;6.808;2022-08-14T01:16:27;101070.16;;;22.73;50.48
68871;BME280;55906;52.278;6.808;2022-08-14T01:18:55;101062.19;;;22.70;51.17
68871;BME280;55906;52.278;6.808;2022-08-14T01:21:40;101058.69;;;22.66;50.65
68871;BME280;55906;52.278;6.808;2022-08-14T01:24:10;101061.47;;;22.62;51.06
68871;BME280;55906;52.278;6.808;2022-08-14T01:26:40;101053.50;;;22.57;50.96
68871;BME280;55906;52.278;6.808;2022-08-14T01:29:07;101052.63;;;22.57;51.06
68871;BME280;55906;52.278;6.808;2022-08-14T01:31:35;101046.47;;;22.52;51.28
68871;BME280;55906;52.278;6.808;2022-08-14T01:34:05;101040.25;;;22.50;51.24
68871;BME280;55906;52.278;6.808;2022-08-14T01:36:32;101044.78;;;22.48;51.23
68871;BME280;55906;52.278;6.808;2022-08-14T01:39:07;101039.44;;;22.46;51.98
68871;BME280;55906;52.278;6.808;2022-08-14T01:41:34;101036.81;;;22.43;51.51
68871;BME280;55906;52.278;6.808;2022-08-14T01:44:05;101027.06;;;22.39;51.79
68871;BME280;55906;52.278;6.808;2022-08-14T01:46:34;101029.78;;;22.38;51.53
68871;BME280;55906;52.278;6.808;2022-08-14T01:49:04;101029.84;;;22.34;51.62
68871;BME280;55906;52.278;6.808;2022-08-14T01:51:32;101031.66;;;22.32;51.79
68871;BME280;55906;52.278;6.808;2022-08-14T01:54:04;101024.53;;;22.31;52.23
68871;BME280;55906;52.278;6.808;2022-08-14T01:59:38;101025.56;;;22.24;52.42
68871;BME280;55906;52.278;6.808;2022-08-14T02:02:08;101014.06;;;22.19;52.18
68871;BME280;55906;52.278;6.808;2022-08-14T02:04:42;101020.31;;;22.20;52.32
68871;BME280;55906;52.278;6.808;2022-08-14T02:07:08;101017.69;;;22.17;52.50
68871;BME280;55906;52.278;6.808;2022-08-14T02:09:36;101009.66;;;22.17;52.99
68871;BME280;55906;52.278;6.808;2022-08-14T02:12:05;101003.47;;;22.13;52.69
68871;BME280;55906;52.278;6.808;2022-08-14T02:14:32;100992.78;;;22.12;52.54
68871;BME280;55906;52.278;6.808;2022-08-14T02:17:00;100997.25;;;22.11;52.69
68871;BME280;55906;52.278;6.808;2022-08-14T02:19:30;100982.06;;;22.09;52.78
68871;BME280;55906;52.278;6.808;2022-08-14T02:21:59;100987.47;;;22.07;53.37
68871;BME280;55906;52.278;6.808;2022-08-14T02:24:28;100980.34;;;22.06;53.08
68871;BME280;55906;52.278;6.808;2022-08-14T02:26:59;100986.63;;;22.05;53.34
68871;BME280;55906;52.278;6.808;2022-08-14T02:29:29;100982.19;;;22.01;53.42
68871;BME280;55906;52.278;6.808;2022-08-14T02:31:58;100991.19;;;21.98;53.91
68871;BME280;55906;52.278;6.808;2022-08-14T02:34:26;100990.31;;;21.96;53.24
68871;BME280;55906;52.278;6.808;2022-08-14T02:36:55;100990.34;;;21.95;53.62
68871;BME280;55906;52.278;6.808;2022-08-14T02:39:25;100988.66;;;21.91;54.08
68871;BME280;55906;52.278;6.808;2022-08-14T02:41:52;100988.69;;;21.88;54.20
68871;BME280;55906;52.278;6.808;2022-08-14T02:44:20;100991.41;;;21.86;53.77
68871;BME280;55906;52.278;6.808;2022-08-14T02:46:48;100985.22;;;21.83;53.87
68871;BME280;55906;52.278;6.808;2022-08-14T02:49:15;100974.59;;;21.78;54.32
68871;BME280;55906;52.278;6.808;2022-08-14T02:51:46;100971.06;;;21.76;54.85
68871;BME280;55906;52.278;6.808;2022-08-14T02:54:13;100967.56;;;21.72;54.18
68871;BME280;55906;52.278;6.808;2022-08-14T02:56:40;100964.91;;;21.71;54.19
68871;BME280;55906;52.278;6.808;2022-08-14T02:59:08;100964.94;;;21.69;54.68
68871;BME280;55906;52.278;6.808;2022-08-14T03:01:39;100961.44;;;21.66;54.43
68871;BME280;55906;52.278;6.808;2022-08-14T03:04:06;100962.38;;;21.63;54.39
68871;BME280;55906;52.278;6.808;2022-08-14T03:06:35;100966.84;;;21.63;54.88
68871;BME280;55906;52.278;6.808;2022-08-14T03:09:03;100960.69;;;21.58;55.00
68871;BME280;55906;52.278;6.808;2022-08-14T03:11:29;100959.81;;;21.57;54.93
68871;BME280;55906;52.278;6.808;2022-08-14T03:13:57;100966.97;;;21.55;55.03
68871;BME280;55906;52.278;6.808;2022-08-14T03:16:24;100966.13;;;21.53;55.41
68871;BME280;55906;52.278;6.808;2022-08-14T03:18:54;100967.94;;;21.51;55.44
68871;BME280;55906;52.278;6.808;2022-08-14T03:21:23;100967.97;;;21.50;55.60
68871;BME280;55906;52.278;6.808;2022-08-14T03:23:54;100971.63;;;21.46;55.36
68871;BME280;55906;52.278;6.808;2022-08-14T03:26:27;100976.09;;;21.44;55.66
68871;BME280;55906;52.278;6.808;2022-08-14T03:28:53;100975.25;;;21.42;55.81
68871;BME280;55906;52.278;6.808;2022-08-14T03:31:20;100970.84;;;21.39;55.96
68871;BME280;55906;52.278;6.808;2022-08-14T03:33:48;100978.00;;;21.37;56.07
68871;BME280;55906;52.278;6.808;2022-08-14T03:36:35;100969.13;;;21.35;58.18
68871;BME280;55906;52.278;6.808;2022-08-14T03:39:04;100964.75;;;21.29;56.37
68871;BME280;55906;52.278;6.808;2022-08-14T03:41:31;100969.28;;;21.26;56.39
68871;BME280;55906;52.278;6.808;2022-08-14T03:44:02;100965.75;;;21.21;56.54
68871;BME280;55906;52.278;6.808;2022-08-14T03:46:30;100956.88;;;21.19;56.31
68871;BME280;55906;52.278;6.808;2022-08-14T03:48:57;100964.03;;;21.17;56.34
68871;BME280;55906;52.278;6.808;2022-08-14T03:51:25;100956.13;;;21.09;57.09
68871;BME280;55906;52.278;6.808;2022-08-14T03:53:55;100957.94;;;21.08;57.05
68871;BME280;55906;52.278;6.808;2022-08-14T03:56:23;100955.28;;;21.05;56.97
68871;BME280;55906;52.278;6.808;2022-08-14T03:58:53;100954.41;;;21.05;57.49
68871;BME280;55906;52.278;6.808;2022-08-14T04:01:22;100956.22;;;21.03;57.18
68871;BME280;55906;52.278;6.808;2022-08-14T04:03:51;100950.97;;;20.97;57.98
68871;BME280;55906;52.278;6.808;2022-08-14T04:06:18;100959.88;;;20.97;57.93
68871;BME280;55906;52.278;6.808;2022-08-14T04:08:46;100962.56;;;20.97;57.62
68871;BME280;55906;52.278;6.808;2022-08-14T04:11:15;100960.81;;;20.95;57.81
68871;BME280;55906;52.278;6.808;2022-08-14T04:13:43;100963.50;;;20.95;57.71
68871;BME280;55906;52.278;6.808;2022-08-14T04:16:12;100965.25;;;20.96;57.57
68871;BME280;55906;52.278;6.808;2022-08-14T04:18:41;100967.97;;;20.94;57.76
68871;BME280;55906;52.278;6.808;2022-08-14T04:21:09;100964.38;;;20.95;57.79
68871;BME280;55906;52.278;6.808;2022-08-14T04:23:36;100963.50;;;20.95;57.77
68871;BME280;55906;52.278;6.808;2022-08-14T04:26:04;100959.03;;;20.94;58.24
68871;BME280;55906;52.278;6.808;2022-08-14T04:28:35;100964.38;;;20.95;58.44
68871;BME280;55906;52.278;6.808;2022-08-14T04:31:01;100955.44;;;20.96;58.16
68871;BME280;55906;52.278;6.808;2022-08-14T04:33:28;100959.88;;;20.97;57.94
68871;BME280;55906;52.278;6.808;2022-08-14T04:35:55;100957.22;;;20.96;57.85
68871;BME280;55906;52.278;6.808;2022-08-14T04:38:21;100960.78;;;20.96;58.04
68871;BME280;55906;52.278;6.808;2022-08-14T04:41:06;100962.56;;;20.97;58.33
68871;BME280;55906;52.278;6.808;2022-08-14T04:43:51;100963.44;;;20.98;58.63
68871;BME280;55906;52.278;6.808;2022-08-14T04:46:19;100961.63;;;21.00;57.94
68871;BME280;55906;52.278;6.808;2022-08-14T04:48:47;100958.03;;;21.01;58.32
68871;BME280;55906;52.278;6.808;2022-08-14T04:51:19;100957.13;;;21.02;59.09
68871;BME280;55906;52.278;6.808;2022-08-14T04:53:54;100960.69;;;21.02;58.19
68871;BME280;55906;52.278;6.808;2022-08-14T04:56:22;100952.66;;;21.02;58.64
68871;BME280;55906;52.278;6.808;2022-08-14T04:58:52;100953.53;;;21.04;58.75
68871;BME280;55906;52.278;6.808;2022-08-14T05:01:22;100954.38;;;21.08;58.25
68871;BME280;55906;52.278;6.808;2022-08-14T05:03:49;100954.34;;;21.09;58.54
68871;BME280;55906;52.278;6.808;2022-08-14T05:06:20;100956.09;;;21.12;58.23
68871;BME280;55906;52.278;6.808;2022-08-14T05:08:47;100947.13;;;21.15;58.81
68871;BME280;55906;52.278;6.808;2022-08-14T05:11:16;100942.59;;;21.18;58.59
68871;BME280;55906;52.278;6.808;2022-08-14T05:13:46;100942.56;;;21.23;58.73
68871;BME280;55906;52.278;6.808;2022-08-14T05:16:15;100951.41;;;21.28;58.40
68871;BME280;55906;52.278;6.808;2022-08-14T05:18:41;100943.28;;;21.32;58.60
68871;BME280;55906;52.278;6.808;2022-08-14T05:21:11;100944.16;;;21.33;58.53
68871;BME280;55906;52.278;6.808;2022-08-14T05:23:38;100947.66;;;21.38;58.75
68871;BME280;55906;52.278;6.808;2022-08-14T05:26:06;100951.16;;;21.42;58.51
68871;BME280;55906;52.278;6.808;2022-08-14T05:28:39;100935.94;;;21.44;59.09
68871;BME280;55906;52.278;6.808;2022-08-14T05:31:06;100938.59;;;21.45;58.98
68871;BME280;55906;52.278;6.808;2022-08-14T05:33:35;100941.13;;;21.53;59.09
68871;BME280;55906;52.278;6.808;2022-08-14T05:36:04;100941.16;;;21.51;60.46
68871;BME280;55906;52.278;6.808;2022-08-14T05:38:33;100929.41;;;21.60;58.93
68871;BME280;55906;52.278;6.808;2022-08-14T05:41:00;100923.09;;;21.64;58.93
68871;BME280;55906;52.278;6.808;2022-08-14T05:43:27;100914.06;;;21.68;58.68
68871;BME280;55906;52.278;6.808;2022-08-14T05:45:53;100913.97;;;21.74;58.89
68871;BME280;55906;52.278;6.808;2022-08-14T05:48:20;100918.31;;;21.80;58.21
68871;BME280;55906;52.278;6.808;2022-08-14T05:50:48;100921.75;;;21.86;58.73
68871;BME280;55906;52.278;6.808;2022-08-14T05:53:19;100919.84;;;21.93;58.47
68871;BME280;55906;52.278;6.808;2022-08-14T05:55:46;100917.88;;;22.02;58.26
68871;BME280;55906;52.278;6.808;2022-08-14T05:58:12;100911.56;;;22.07;58.47
68871;BME280;55906;52.278;6.808;2022-08-14T06:00:40;100913.19;;;22.15;57.80
68871;BME280;55906;52.278;6.808;2022-08-14T06:03:09;100912.16;;;22.22;57.56
68871;BME280;55906;52.278;6.808;2022-08-14T06:05:37;100902.09;;;22.32;57.75
68871;BME280;55906;52.278;6.808;2022-08-14T06:08:05;100900.97;;;22.42;57.38
68871;BME280;55906;52.278;6.808;2022-08-14T06:10:39;100901.69;;;22.50;57.04
68871;BME280;55906;52.278;6.808;2022-08-14T06:13:06;100904.13;;;22.61;57.29
68871;BME280;55906;52.278;6.808;2022-08-14T06:15:32;100897.63;;;22.71;57.04
68871;BME280;55906;52.278;6.808;2022-08-14T06:18:05;100898.31;;;22.81;56.69
68871;BME280;55906;52.278;6.808;2022-08-14T06:20:34;100893.63;;;22.90;56.32
68871;BME280;55906;52.278;6.808;2022-08-14T06:23:00;100906.81;;;22.99;55.76
68871;BME280;55906;52.278;6.808;2022-08-14T06:25:28;100900.38;;;23.07;56.51
68871;BME280;55906;52.278;6.808;2022-08-14T06:27:55;100901.84;;;23.18;55.38
68871;BME280;55906;52.278;6.808;2022-08-14T06:30:24;100901.59;;;23.29;55.27
68871;BME280;55906;52.278;6.808;2022-08-14T06:32:52;100895.03;;;23.39;54.98
68871;BME280;55906;52.278;6.808;2022-08-14T06:35:18;100898.44;;;23.47;54.86
68871;BME280;55906;52.278;6.808;2022-08-14T06:37:48;100901.84;;;23.55;54.92
68871;BME280;55906;52.278;6.808;2022-08-14T06:40:16;100905.28;;;23.60;54.74
68871;BME280;55906;52.278;6.808;2022-08-14T06:42:45;100899.56;;;23.73;54.31
68871;BME280;55906;52.278;6.808;2022-08-14T06:45:12;100898.44;;;23.81;54.41
68871;BME280;55906;52.278;6.808;2022-08-14T06:47:41;100898.97;;;23.94;54.04
68871;BME280;55906;52.278;6.808;2022-08-14T06:50:10;100903.09;;;24.06;53.73
68871;BME280;55906;52.278;6.808;2022-08-14T06:52:38;100904.53;;;24.17;53.66
68871;BME280;55906;52.278;6.808;2022-08-14T06:55:06;100900.63;;;24.29;53.46
68871;BME280;55906;52.278;6.808;2022-08-14T06:57:34;100900.34;;;24.38;53.00
68871;BME280;55906;52.278;6.808;2022-08-14T07:00:06;100892.97;;;24.45;53.32
68871;BME280;55906;52.278;6.808;2022-08-14T07:02:33;100902.53;;;24.55;52.69
68871;BME280;55906;52.278;6.808;2022-08-14T07:05:18;100905.03;;;24.61;52.92
68871;BME280;55906;52.278;6.808;2022-08-14T07:08:02;100905.66;;;24.71;52.65
68871;BME280;55906;52.278;6.808;2022-08-14T07:10:30;100908.97;;;24.79;52.14
68871;BME280;55906;52.278;6.808;2022-08-14T07:12:56;100903.13;;;24.93;52.18
68871;BME280;55906;52.278;6.808;2022-08-14T07:15:24;100901.06;;;25.02;51.51
68871;BME280;55906;52.278;6.808;2022-08-14T07:17:51;100904.28;;;25.13;51.32
68871;BME280;55906;52.278;6.808;2022-08-14T07:20:18;100903.13;;;25.20;51.56
68871;BME280;55906;52.278;6.808;2022-08-14T07:22:45;100893.84;;;25.29;50.86
68871;BME280;55906;52.278;6.808;2022-08-14T07:25:12;100886.44;;;25.36;50.82
68871;BME280;55906;52.278;6.808;2022-08-14T07:27:39;100898.50;;;25.50;50.61
68871;BME280;55906;52.278;6.808;2022-08-14T07:30:07;100896.19;;;25.65;50.82
68871;BME280;55906;52.278;6.808;2022-08-14T07:32:38;100890.50;;;25.74;50.00
68871;BME280;55906;52.278;6.808;2022-08-14T07:35:06;100896.25;;;25.88;50.48
68871;BME280;55906;52.278;6.808;2022-08-14T07:37:32;100886.81;;;26.01;49.77
68871;BME280;55906;52.278;6.808;2022-08-14T07:40:00;100885.34;;;26.16;49.42
68871;BME280;55906;52.278;6.808;2022-08-14T07:42:26;100883.06;;;26.29;49.01
68871;BME280;55906;52.278;6.808;2022-08-14T07:44:54;100878.31;;;26.35;48.81
68871;BME280;55906;52.278;6.808;2022-08-14T07:47:21;100884.94;;;26.50;48.80
68871;BME280;55906;52.278;6.808;2022-08-14T07:49:56;100878.16;;;26.62;48.74
68871;BME280;55906;52.278;6.808;2022-08-14T07:52:24;100874.41;;;26.66;48.29
68871;BME280;55906;52.278;6.808;2022-08-14T07:54:51;100872.47;;;26.69;48.32
68871;BME280;55906;52.278;6.808;2022-08-14T07:57:19;100875.34;;;26.87;48.06
68871;BME280;55906;52.278;6.808;2022-08-14T07:59:45;100872.16;;;26.99;47.48
68871;BME280;55906;52.278;6.808;2022-08-14T08:02:14;100862.72;;;27.09;46.89
68871;BME280;55906;52.278;6.808;2022-08-14T08:04:44;100867.41;;;27.26;46.85
68871;BME280;55906;52.278;6.808;2022-08-14T08:07:15;100861.56;;;27.36;46.19
68871;BME280;55906;52.278;6.808;2022-08-14T08:09:45;100858.25;;;27.50;46.43
68871;BME280;55906;52.278;6.808;2022-08-14T08:12:14;100863.16;;;27.62;45.88
68871;BME280;55906;52.278;6.808;2022-08-14T08:14:42;100869.00;;;27.72;44.95
68871;BME280;55906;52.278;6.808;2022-08-14T08:17:09;100870.50;;;27.79;44.72
68871;BME280;55906;52.278;6.808;2022-08-14T08:19:37;100864.66;;;27.88;44.75
68871;BME280;55906;52.278;6.808;2022-08-14T08:22:04;100871.34;;;28.00;44.25
68871;BME280;55906;52.278;6.808;2022-08-14T08:24:32;100860.16;;;28.08;43.79
68871;BME280;55906;52.278;6.808;2022-08-14T08:27:00;100857.75;;;28.20;43.64
68871;BME280;55906;52.278;6.808;2022-08-14T08:29:26;100856.97;;;28.37;43.42
68871;BME280;55906;52.278;6.808;2022-08-14T08:31:53;100850.22;;;28.46;42.99
68871;BME280;55906;52.278;6.808;2022-08-14T08:34:20;100848.75;;;28.57;43.10
68871;BME280;55906;52.278;6.808;2022-08-14T08:36:46;100835.66;;;28.48;43.22
68871;BME280;55906;52.278;6.808;2022-08-14T08:39:13;100835.81;;;28.64;43.29
68871;BME280;55906;52.278;6.808;2022-08-14T08:41:44;100820.84;;;28.93;42.61
68871;BME280;55906;52.278;6.808;2022-08-14T08:44:11;100825.88;;;29.18;42.03
68871;BME280;55906;52.278;6.808;2022-08-14T08:46:39;100811.03;;;29.42;40.89
68871;BME280;55906;52.278;6.808;2022-08-14T08:49:07;100814.75;;;29.74;41.03
68871;BME280;55906;52.278;6.808;2022-08-14T08:51:37;100815.66;;;30.08;40.29
68871;BME280;55906;52.278;6.808;2022-08-14T08:54:05;100817.59;;;30.53;39.93
68871;BME280;55906;52.278;6.808;2022-08-14T08:56:38;100810.34;;;30.99;37.74
68871;BME280;55906;52.278;6.808;2022-08-14T08:59:18;100805.97;;;31.57;37.86
68871;BME280;55906;52.278;6.808;2022-08-14T09:01:49;100802.56;;;32.10;38.03
68871;BME280;55906;52.278;6.808;2022-08-14T09:04:17;100792.97;;;32.45;36.09
68871;BME280;55906;52.278;6.808;2022-08-14T09:06:44;100781.53;;;32.82;36.72
68871;BME280;55906;52.278;6.808;2022-08-14T09:09:19;100778.78;;;33.72;34.01
68871;BME280;55906;52.278;6.808;2022-08-14T09:11:46;100773.63;;;34.55;33.84
68871;BME280;55906;52.278;6.808;2022-08-14T09:14:13;100778.78;;;35.29;32.53
68871;BME280;55906;52.278;6.808;2022-08-14T09:16:41;100777.78;;;35.99;30.46
68871;BME280;55906;52.278;6.808;2022-08-14T09:19:09;100778.06;;;36.62;29.64
68871;BME280;55906;52.278;6.808;2022-08-14T09:21:37;100785.50;;;36.82;28.84
68871;BME280;55906;52.278;6.808;2022-08-14T09:24:05;100789.69;;;37.18;28.03
68871;BME280;55906;52.278;6.808;2022-08-14T09:26:32;100794.06;;;37.41;27.23
68871;BME280;55906;52.278;6.808;2022-08-14T09:28:59;100796.78;;;37.62;26.37
68871;BME280;55906;52.278;6.808;2022-08-14T09:31:26;100795.09;;;38.22;25.76
68871;BME280;55906;52.278;6.808;2022-08-14T09:34:13;100803.09;;;38.45;23.53
68871;BME280;55906;52.278;6.808;2022-08-14T09:36:52;100803.81;;;39.06;24.44
68871;BME280;55906;52.278;6.808;2022-08-14T09:39:33;100794.91;;;39.60;24.32
68871;BME280;55906;52.278;6.808;2022-08-14T09:42:18;100779.09;;;39.99;23.52
68871;BME280;55906;52.278;6.808;2022-08-14T09:44:52;100780.56;;;40.21;23.13
68871;BME280;55906;52.278;6.808;2022-08-14T09:47:40;100772.34;;;40.67;22.60
68871;BME280;55906;52.278;6.808;2022-08-14T09:50:20;100764.22;;;41.01;21.92
68871;BME280;55906;52.278;6.808;2022-08-14T09:52:49;100771.00;;;41.24;22.50
68871;BME280;55906;52.278;6.808;2022-08-14T09:55:17;100762.44;;;41.61;21.83
68871;BME280;55906;52.278;6.808;2022-08-14T09:57:44;100757.03;;;42.03;21.65
68871;BME280;55906;52.278;6.808;2022-08-14T10:00:12;100759.50;;;42.23;21.06
68871;BME280;55906;52.278;6.808;2022-08-14T10:02:51;100757.00;;;42.54;20.25
68871;BME280;55906;52.278;6.808;2022-08-14T10:05:29;100757.63;;;42.98;19.11
68871;BME280;55906;52.278;6.808;2022-08-14T10:07:56;100751.50;;;42.70;19.90
68871;BME280;55906;52.278;6.808;2022-08-14T10:10:30;100746.97;;;42.53;18.52
68871;BME280;55906;52.278;6.808;2022-08-14T10:12:59;100732.53;;;42.99;19.43
68871;BME280;55906;52.278;6.808;2022-08-14T10:15:28;100719.88;;;43.13;18.77
68871;BME280;55906;52.278;6.808;2022-08-14T10:18:06;100720.72;;;43.38;18.08
68871;BME280;55906;52.278;6.808;2022-08-14T10:20:36;100717.72;;;43.56;18.70
68871;BME280;55906;52.278;6.808;2022-08-14T10:23:10;100715.09;;;43.62;18.93
68871;BME280;55906;52.278;6.808;2022-08-14T10:25:41;100715.34;;;43.92;18.41
68871;BME280;55906;52.278;6.808;2022-08-14T10:28:09;100716.50;;;43.97;18.98
68871;BME280;55906;52.278;6.808;2022-08-14T10:30:40;100718.16;;;43.84;18.65
68871;BME280;55906;52.278;6.808;2022-08-14T10:33:07;100701.16;;;43.87;17.46
68871;BME280;55906;52.278;6.808;2022-08-14T10:35:42;100699.88;;;44.36;18.04
68871;BME280;55906;52.278;6.808;2022-08-14T10:38:09;100689.78;;;44.44;17.96
68871;BME280;55906;52.278;6.808;2022-08-14T10:40:36;100674.19;;;44.34;18.24
68871;BME280;55906;52.278;6.808;2022-08-14T10:43:15;100687.66;;;44.91;17.04
68871;BME280;55906;52.278;6.808;2022-08-14T10:45:51;100697.75;;;45.07;16.97
68871;BME280;55906;52.278;6.808;2022-08-14T10:48:19;100684.97;;;44.83;17.00
68871;BME280;55906;52.278;6.808;2022-08-14T10:50:47;100683.19;;;45.05;16.78
68871;BME280;55906;52.278;6.808;2022-08-14T10:53:28;100673.97;;;44.67;16.00
68871;BME280;55906;52.278;6.808;2022-08-14T10:55:57;100674.16;;;45.03;16.33
68871;BME280;55906;52.278;6.808;2022-08-14T10:58:27;100674.84;;;45.20;16.46
68871;BME280;55906;52.278;6.808;2022-08-14T11:00:56;100673.84;;;45.36;16.45
68871;BME280;55906;52.278;6.808;2022-08-14T11:03:35;100669.06;;;45.74;15.92
68871;BME280;55906;52.278;6.808;2022-08-14T11:06:12;100665.13;;;44.41;17.07
68871;BME280;55906;52.278;6.808;2022-08-14T11:08:43;100665.13;;;44.41;16.97
68871;BME280;55906;52.278;6.808;2022-08-14T11:11:09;100667.31;;;44.53;16.65
68871;BME280;55906;52.278;6.808;2022-08-14T11:13:39;100662.19;;;45.03;16.34
68871;BME280;55906;52.278;6.808;2022-08-14T11:16:08;100648.72;;;45.29;16.08
68871;BME280;55906;52.278;6.808;2022-08-14T11:18:36;100649.28;;;45.24;15.93
68871;BME280;55906;52.278;6.808;2022-08-14T11:21:04;100651.66;;;45.13;16.27
68871;BME280;55906;52.278;6.808;2022-08-14T11:23:35;100652.22;;;45.97;15.71
68871;BME280;55906;52.278;6.808;2022-08-14T11:26:03;100645.72;;;46.04;15.76
68871;BME280;55906;52.278;6.808;2022-08-14T11:28:32;100650.63;;;46.66;15.37
68871;BME280;55906;52.278;6.808;2022-08-14T11:31:02;100642.16;;;46.74;14.92
68871;BME280;55906;52.278;6.808;2022-08-14T11:33:29;100632.28;;;47.28;14.85
68871;BME280;55906;52.278;6.808;2022-08-14T11:36:00;100631.53;;;46.84;14.76
68871;BME280;55906;52.278;6.808;2022-08-14T11:38:27;100628.38;;;44.99;14.91
68871;BME280;55906;52.278;6.808;2022-08-14T11:40:56;100632.81;;;45.52;14.84
68871;BME280;55906;52.278;6.808;2022-08-14T11:43:23;100632.13;;;45.50;14.89
68871;BME280;55906;52.278;6.808;2022-08-14T11:45:51;100634.34;;;45.25;14.85
68871;BME280;55906;52.278;6.808;2022-08-14T11:48:19;100625.78;;;45.86;14.84
68871;BME280;55906;52.278;6.808;2022-08-14T11:50:47;100629.47;;;46.08;14.75
68871;BME280;55906;52.278;6.808;2022-08-14T11:53:19;100624.78;;;46.51;14.16
68871;BME280;55906;52.278;6.808;2022-08-14T11:55:46;100626.56;;;46.80;14.07
68871;BME280;55906;52.278;6.808;2022-08-14T11:58:16;100616.16;;;47.58;13.63
68871;BME280;55906;52.278;6.808;2022-08-14T12:00:47;100622.53;;;47.99;13.57
68871;BME280;55906;52.278;6.808;2022-08-14T12:03:14;100615.56;;;47.69;13.96
68871;BME280;55906;52.278;6.808;2022-08-14T12:05:40;100601.88;;;47.39;13.54
68871;BME280;55906;52.278;6.808;2022-08-14T12:08:08;100601.13;;;48.13;13.23
68871;BME280;55906;52.278;6.808;2022-08-14T12:10:37;100602.88;;;48.21;13.02
68871;BME280;55906;52.278;6.808;2022-08-14T12:13:11;100591.91;;;47.17;13.88
68871;BME280;55906;52.278;6.808;2022-08-14T12:15:43;100595.53;;;46.83;13.80
68871;BME280;55906;52.278;6.808;2022-08-14T12:18:10;100590.41;;;47.62;13.29
68871;BME280;55906;52.278;6.808;2022-08-14T12:20:39;100584.97;;;46.57;14.00
68871;BME280;55906;52.278;6.808;2022-08-14T12:23:20;100591.75;;;46.97;13.45
68871;BME280;55906;52.278;6.808;2022-08-14T12:25:47;100586.38;;;47.78;13.34
68871;BME280;55906;52.278;6.808;2022-08-14T12:28:14;100587.97;;;48.00;13.16
68871;BME280;55906;52.278;6.808;2022-08-14T12:30:43;100585.72;;;48.44;13.20
68871;BME280;55906;52.278;6.808;2022-08-14T12:33:20;100586.88;;;47.95;12.75
68871;BME280;55906;52.278;6.808;2022-08-14T12:35:50;100587.25;;;46.96;13.48
68871;BME280;55906;52.278;6.808;2022-08-14T12:38:17;100586.34;;;47.65;13.52
68871;BME280;55906;52.278;6.808;2022-08-14T12:40:45;100570.88;;;48.36;12.46
68871;BME280;55906;52.278;6.808;2022-08-14T12:43:12;100564.41;;;48.89;12.83
68871;BME280;55906;52.278;6.808;2022-08-14T12:45:48;100558.59;;;48.84;12.08
68871;BME280;55906;52.278;6.808;2022-08-14T12:48:16;100565.25;;;48.17;12.09
68871;BME280;55906;52.278;6.808;2022-08-14T12:50:44;100567.63;;;48.86;12.59
68871;BME280;55906;52.278;6.808;2022-08-14T12:53:12;100562.50;;;48.76;12.15
68871;BME280;55906;52.278;6.808;2022-08-14T12:55:41;100560.00;;;47.80;12.60
68871;BME280;55906;52.278;6.808;2022-08-14T12:58:08;100562.00;;;48.06;12.22
68871;BME280;55906;52.278;6.808;2022-08-14T13:00:36;100554.97;;;48.44;12.49
68871;BME280;55906;52.278;6.808;2022-08-14T13:03:05;100559.06;;;48.34;12.51